Aviation Digital Data Service (ADDS)

Output produced by TAFs form (0900 UTC 20 October 2017)
found at http://www.aviationweather.gov/adds/tafs/
 
KBHM 200853Z 00000KT 10SM CLR 09/08 A3027 RMK AO2 SLP246 T00940078 53004
KBHM 200539Z 2006/2106 00000KT P6SM SKC 
     FM201500 09005KT P6SM FEW300 
     FM210000 00000KT P6SM SCT300